createdAt,value
2022-11-04T00:00:46.062Z,99946.91
2022-11-04T00:03:14.478Z,99947.28
2022-11-04T00:05:41.401Z,99944.06
2022-11-04T00:08:26.772Z,99924.06
2022-11-04T00:11:16.346Z,99925.03
2022-11-04T00:13:44.248Z,99923.06
2022-11-04T00:16:30.081Z,99901.94
2022-11-04T00:18:56.827Z,99903.94
2022-11-04T00:21:42.580Z,99902.22
2022-11-04T00:24:50.215Z,99898.63
2022-11-04T00:27:38.580Z,99883.66
2022-11-04T00:30:08.567Z,99876.63
2022-11-04T00:32:54.422Z,99885.59
2022-11-04T00:35:21.831Z,99883.59
2022-11-04T00:37:48.609Z,99890.28
2022-11-04T00:40:40.587Z,99883.31
2022-11-04T00:43:07.863Z,99870.91
2022-11-04T00:45:35.014Z,99868.47
2022-11-04T00:48:01.873Z,99874.25
2022-11-04T00:50:29.253Z,99871.91
2022-11-04T00:53:03.424Z,99868.47
2022-11-04T00:55:30.210Z,99860.53
2022-11-04T00:57:58.534Z,99867.91
2022-11-04T01:00:29.689Z,99866.75
2022-11-04T01:02:56.997Z,99858.81
2022-11-04T01:05:23.876Z,99857.97
2022-11-04T01:07:50.603Z,99842.97
2022-11-04T01:10:17.327Z,99833.56
2022-11-04T01:12:45.474Z,99833.97
2022-11-04T01:15:12.933Z,99828.53
2022-11-04T01:17:39.807Z,99827.38
2022-11-04T01:20:07.010Z,99807.72
2022-11-04T01:22:35.261Z,99807.31
2022-11-04T01:25:02.027Z,99810.91
2022-11-04T01:27:28.752Z,99805.91
2022-11-04T01:29:55.508Z,99797.16
2022-11-04T01:32:22.183Z,99776.88
2022-11-04T01:34:48.964Z,99771.44
2022-11-04T01:37:15.723Z,99753.88
2022-11-04T01:39:43.184Z,99757.88
2022-11-04T01:42:13.465Z,99748.72
2022-11-04T01:44:49.683Z,99741.31
2022-11-04T01:47:18.497Z,99731.84
2022-11-04T01:49:49.957Z,99718.13
2022-11-04T01:52:22.943Z,99714.00
2022-11-04T01:54:53.375Z,99706.00
2022-11-04T01:57:28.786Z,99690.72
2022-11-04T02:00:00.413Z,99686.72
2022-11-04T02:02:27.491Z,99670.28
2022-11-04T02:04:54.482Z,99646.56
2022-11-04T02:07:21.991Z,99626.41
2022-11-04T02:09:50.195Z,99613.53
2022-11-04T02:12:35.382Z,99609.69
2022-11-04T02:15:03.638Z,99595.81
2022-11-04T02:17:30.320Z,99586.94
2022-11-04T02:20:14.802Z,99583.13
2022-11-04T02:23:09.323Z,99577.38
2022-11-04T02:26:13.971Z,99551.94
2022-11-04T02:29:28.700Z,99545.94
2022-11-04T02:32:26.284Z,99539.94
2022-11-04T02:35:33.800Z,99524.09
2022-11-04T02:38:13.206Z,99526.38
2022-11-04T02:40:51.360Z,99519.97
2022-11-04T02:43:45.078Z,99517.53
2022-11-04T02:46:21.403Z,99503.53
2022-11-04T02:48:54.036Z,99491.81
2022-11-04T02:51:28.601Z,99491.38
2022-11-04T02:54:16.563Z,99477.50
2022-11-04T02:56:49.038Z,99454.38
2022-11-04T02:59:27.354Z,99453.78
2022-11-04T03:01:56.478Z,99443.09
2022-11-04T03:04:29.437Z,99421.91
2022-11-04T03:06:59.743Z,99401.06
2022-11-04T03:09:29.571Z,99395.03
2022-11-04T03:12:04.464Z,99384.91
2022-11-04T03:14:41.539Z,99371.91
2022-11-04T03:17:18.348Z,99362.94
2022-11-04T03:19:54.668Z,99342.06
2022-11-04T03:22:24.157Z,99335.19
2022-11-04T03:24:51.872Z,99315.72
2022-11-04T03:27:39.103Z,99304.56
2022-11-04T03:30:12.593Z,99311.75
2022-11-04T03:32:50.781Z,99296.00
2022-11-04T03:35:18.202Z,99289.88
2022-11-04T03:37:47.661Z,99286.31
2022-11-04T03:40:16.111Z,99283.91
2022-11-04T03:42:52.856Z,99285.63
2022-11-04T03:45:19.654Z,99270.28
2022-11-04T03:48:12.564Z,99267.16
2022-11-04T03:50:44.943Z,99254.16
2022-11-04T03:53:14.255Z,99242.81
2022-11-04T03:55:59.910Z,99222.94
2022-11-04T03:58:35.694Z,99231.25
2022-11-04T04:01:43.715Z,99230.91
2022-11-04T04:04:20.423Z,99243.28
2022-11-04T04:06:53.750Z,99247.50
2022-11-04T04:09:51.866Z,99241.97
2022-11-04T04:12:35.536Z,99219.22
2022-11-04T04:15:07.177Z,99221.75
2022-11-04T04:17:48.342Z,99235.38
2022-11-04T04:20:20.598Z,99233.97
2022-11-04T04:22:53.477Z,99223.50
2022-11-04T04:25:42.392Z,99225.13
2022-11-04T04:28:13.689Z,99198.31
2022-11-04T04:30:42.473Z,99186.84
2022-11-04T04:33:13.764Z,99171.47
2022-11-04T04:35:44.741Z,99157.97
2022-11-04T04:38:40.834Z,99164.03
2022-11-04T04:41:32.769Z,99153.88
2022-11-04T04:44:18.003Z,99155.66
2022-11-04T04:46:50.591Z,99152.22
2022-11-04T04:49:20.932Z,99139.59
2022-11-04T04:51:48.197Z,99146.09
2022-11-04T04:54:15.440Z,99142.25
2022-11-04T04:56:42.232Z,99133.53
2022-11-04T04:59:09.666Z,99128.34
2022-11-04T05:02:01.297Z,99131.38
2022-11-04T05:04:30.126Z,99134.09
2022-11-04T05:06:56.919Z,99119.81
2022-11-04T05:09:28.347Z,99103.44
2022-11-04T05:11:59.246Z,99109.56
2022-11-04T05:14:26.024Z,99116.88
2022-11-04T05:16:56.326Z,99109.88
2022-11-04T05:19:23.018Z,99117.31
2022-11-04T05:21:51.619Z,99115.47
2022-11-04T05:24:18.510Z,99116.31
2022-11-04T05:26:48.708Z,99118.16
2022-11-04T05:29:16.143Z,99131.16
2022-11-04T05:31:42.928Z,99131.97
2022-11-04T05:34:15.473Z,99131.97
2022-11-04T05:36:45.852Z,99124.91
2022-11-04T05:39:14.161Z,99142.09
2022-11-04T05:41:41.058Z,99137.50
2022-11-04T05:44:09.685Z,99147.03
2022-11-04T05:46:36.950Z,99153.34
2022-11-04T05:49:03.924Z,99155.59
2022-11-04T05:51:30.857Z,99172.81
2022-11-04T05:53:58.052Z,99165.16
2022-11-04T05:56:24.856Z,99175.69
2022-11-04T05:58:51.524Z,99170.81
2022-11-04T06:01:32.045Z,99161.88
2022-11-04T06:04:00.527Z,99165.91
2022-11-04T06:06:30.374Z,99166.22
2022-11-04T06:08:58.585Z,99175.59
2022-11-04T06:11:27.162Z,99171.16
2022-11-04T06:13:55.115Z,99168.38
2022-11-04T06:16:22.462Z,99166.25
2022-11-04T06:18:49.375Z,99169.16
2022-11-04T06:21:18.354Z,99167.84
2022-11-04T06:23:45.203Z,99177.53
2022-11-04T06:26:13.618Z,99180.50
2022-11-04T06:28:40.820Z,99193.28
2022-11-04T06:31:10.390Z,99195.06
2022-11-04T06:33:37.442Z,99194.50
2022-11-04T06:36:06.754Z,99193.28
2022-11-04T06:38:36.201Z,99199.97
2022-11-04T06:43:31.829Z,99214.09
2022-11-04T06:46:03.798Z,99214.78
2022-11-04T06:48:31.421Z,99222.06
2022-11-04T06:50:59.954Z,99235.50
2022-11-04T06:53:28.223Z,99251.19
2022-11-04T06:56:02.196Z,99257.34
2022-11-04T06:58:28.967Z,99271.81
2022-11-04T07:00:58.897Z,99274.63
2022-11-04T07:03:25.717Z,99280.66
2022-11-04T07:05:52.525Z,99290.75
2022-11-04T07:08:19.623Z,99319.28
2022-11-04T07:10:46.348Z,99334.81
2022-11-04T07:13:13.362Z,99345.28
2022-11-04T07:15:40.373Z,99347.97
2022-11-04T07:18:07.490Z,99364.28
2022-11-04T07:20:36.478Z,99373.13
2022-11-04T07:23:03.344Z,99375.34
2022-11-04T07:25:30.395Z,99391.97
2022-11-04T07:28:01.123Z,99408.97
2022-11-04T07:30:29.605Z,99425.97
2022-11-04T07:33:21.769Z,99439.56
2022-11-04T07:38:50.319Z,99451.38
2022-11-04T07:41:18.161Z,99472.88
2022-11-04T07:43:54.271Z,99484.84
2022-11-04T07:46:21.652Z,99493.88
2022-11-04T07:48:48.582Z,99509.72
2022-11-04T07:51:18.934Z,99529.63
2022-11-04T07:56:45.664Z,99539.41
2022-11-04T07:59:12.688Z,99571.50
2022-11-04T08:01:40.669Z,99592.38
2022-11-04T08:04:11.632Z,99612.44
2022-11-04T08:06:41.253Z,99607.31
2022-11-04T08:09:10.377Z,99627.63
2022-11-04T08:11:42.208Z,99634.19
2022-11-04T08:14:14.153Z,99643.59
2022-11-04T08:16:52.929Z,99648.50
2022-11-04T08:19:23.485Z,99661.63
2022-11-04T08:21:52.545Z,99669.66
2022-11-04T08:24:23.539Z,99671.97
2022-11-04T08:26:54.182Z,99669.53
2022-11-04T08:29:23.528Z,99668.13
2022-11-04T08:31:51.524Z,99677.97
2022-11-04T08:34:20.204Z,99664.06
2022-11-04T08:36:48.418Z,99687.13
2022-11-04T08:39:19.026Z,99694.69
2022-11-04T08:41:48.038Z,99708.88
2022-11-04T08:44:18.839Z,99723.88
2022-11-04T08:46:53.261Z,99727.75
2022-11-04T08:49:27.577Z,99721.03
2022-11-04T08:52:06.380Z,99717.31
2022-11-04T08:54:38.956Z,99735.63
2022-11-04T08:57:12.721Z,99744.06
2022-11-04T08:59:50.017Z,99754.53
2022-11-04T09:19:52.754Z,99807.06
2022-11-04T10:52:03.300Z,99996.72
2022-11-04T12:31:39.448Z,100036.47
2022-11-04T12:34:19.583Z,100020.22
2022-11-04T12:37:19.819Z,100014.59
2022-11-04T13:16:25.779Z,99806.50
2022-11-04T13:19:39.899Z,99791.63
2022-11-04T13:22:25.481Z,99799.63
2022-11-04T13:31:16.477Z,99808.78
2022-11-04T13:41:08.963Z,99828.66
2022-11-04T13:44:01.344Z,99833.69
2022-11-04T13:46:37.148Z,99842.41
2022-11-04T13:49:47.494Z,99848.41
2022-11-04T13:52:17.968Z,99852.41
2022-11-04T13:57:58.792Z,99866.28
2022-11-04T14:13:10.824Z,99887.50
2022-11-04T14:16:53.075Z,99886.34
2022-11-04T14:32:03.852Z,99863.31
2022-11-04T14:34:39.224Z,99864.72
2022-11-04T14:37:28.140Z,99872.41
2022-11-04T14:48:37.214Z,99882.63
2022-11-04T14:51:05.986Z,99877.66
2022-11-04T14:53:37.354Z,99881.66
2022-11-04T14:56:23.044Z,99884.63
2022-11-04T14:59:03.489Z,99885.47
2022-11-04T15:01:35.548Z,99885.19
2022-11-04T15:04:28.445Z,99888.09
2022-11-04T15:07:04.767Z,99878.34
2022-11-04T15:09:37.404Z,99890.47
2022-11-04T15:12:35.574Z,99899.31
2022-11-04T15:15:02.911Z,99894.25
2022-11-04T15:17:34.407Z,99870.81
2022-11-04T15:20:05.130Z,99865.19
2022-11-04T15:22:32.269Z,99871.63
2022-11-04T15:27:57.609Z,99876.25
2022-11-04T15:30:31.396Z,99875.25
2022-11-04T15:33:25.576Z,99877.03
2022-11-04T15:35:53.176Z,99868.16
2022-11-04T15:38:21.004Z,99864.47
2022-11-04T15:40:50.936Z,99861.63
2022-11-04T15:43:19.267Z,99857.94
2022-11-04T15:45:56.215Z,99860.91
2022-11-04T15:48:28.203Z,99859.72
2022-11-04T15:51:12.502Z,99858.47
2022-11-04T15:53:55.042Z,99858.72
2022-11-04T15:56:29.077Z,99857.19
2022-11-04T15:58:58.295Z,99848.66
2022-11-04T16:01:26.422Z,99845.66
2022-11-04T16:04:01.497Z,99848.78
2022-11-04T16:06:34.921Z,99847.91
2022-11-04T16:09:17.686Z,99847.00
2022-11-04T16:12:06.661Z,99847.25
2022-11-04T16:14:34.042Z,99847.78
2022-11-04T16:17:01.511Z,99852.84
2022-11-04T16:20:08.733Z,99848.41
2022-11-04T16:22:38.925Z,99857.31
2022-11-04T16:25:12.695Z,99857.44
2022-11-04T16:27:42.152Z,99866.56
2022-11-04T16:30:23.968Z,99864.97
2022-11-04T16:33:07.086Z,99871.38
2022-11-04T16:35:40.117Z,99874.34
2022-11-04T16:38:07.513Z,99861.50
2022-11-04T16:40:36.451Z,99850.91
2022-11-04T16:43:03.523Z,99855.59
2022-11-04T16:45:36.234Z,99855.09
2022-11-04T16:48:03.960Z,99863.28
2022-11-04T16:50:32.686Z,99859.34
2022-11-04T16:53:01.880Z,99859.22
2022-11-04T16:55:30.108Z,99863.56
2022-11-04T16:58:04.837Z,99853.31
2022-11-04T17:00:35.751Z,99852.94
2022-11-04T17:03:22.200Z,99836.66
2022-11-04T17:05:51.423Z,99837.53
2022-11-04T17:08:19.132Z,99825.69
2022-11-04T17:10:51.986Z,99821.88
2022-11-04T17:13:19.583Z,99815.69
2022-11-04T17:15:48.534Z,99817.47
2022-11-04T17:18:17.379Z,99824.28
2022-11-04T17:20:55.878Z,99825.53
2022-11-04T17:23:26.579Z,99820.06
2022-11-04T17:25:54.698Z,99836.94
2022-11-04T17:28:22.294Z,99836.13
2022-11-04T17:30:51.351Z,99835.38
2022-11-04T17:33:19.734Z,99831.44
2022-11-04T17:35:49.711Z,99832.41
2022-11-04T17:38:18.456Z,99829.97
2022-11-04T17:41:04.817Z,99825.03
2022-11-04T17:52:45.731Z,99816.91
2022-11-04T17:55:16.920Z,99815.19
2022-11-04T17:57:45.465Z,99813.22
2022-11-04T18:00:14.647Z,99805.84
2022-11-04T18:03:09.012Z,99807.50
2022-11-04T18:05:37.717Z,99810.06
2022-11-04T18:08:05.050Z,99811.66
2022-11-04T18:10:32.295Z,99805.66
2022-11-04T18:12:59.364Z,99783.13
2022-11-04T18:15:26.379Z,99780.19
2022-11-04T18:17:54.083Z,99775.34
2022-11-04T18:20:22.405Z,99783.59
2022-11-04T18:22:49.482Z,99789.75
2022-11-04T18:25:17.723Z,99784.47
2022-11-04T18:27:49.440Z,99787.44
2022-11-04T18:30:23.783Z,99787.78
2022-11-04T18:33:02.824Z,99780.16
2022-11-04T18:35:33.586Z,99788.69
2022-11-04T18:41:04.838Z,99773.91
2022-11-04T18:43:44.273Z,99766.28
2022-11-04T18:49:07.211Z,99762.47
2022-11-04T18:51:37.482Z,99774.16
2022-11-04T19:09:47.701Z,99780.06
2022-11-04T19:16:12.371Z,99793.59
2022-11-04T19:18:57.450Z,99792.47
2022-11-04T19:21:42.229Z,99793.69
2022-11-04T19:24:43.878Z,99788.44
2022-11-04T19:30:20.514Z,99823.53
2022-11-04T19:47:37.982Z,99839.38
2022-11-04T19:50:12.182Z,99842.88
2022-11-04T19:52:42.449Z,99843.97
2022-11-04T19:55:14.373Z,99853.66
2022-11-04T19:57:45.214Z,99853.09
2022-11-04T20:00:19.093Z,99851.88
2022-11-04T20:02:50.713Z,99857.97
2022-11-04T20:05:24.448Z,99858.81
2022-11-04T20:08:06.095Z,99863.16
2022-11-04T20:10:41.606Z,99861.88
2022-11-04T20:13:37.024Z,99864.22
2022-11-04T20:16:34.665Z,99862.91
2022-11-04T20:19:30.304Z,99865.63
2022-11-04T20:21:59.135Z,99876.94
2022-11-04T20:24:32.603Z,99875.69
2022-11-04T20:27:06.016Z,99876.00
2022-11-04T20:29:36.138Z,99873.25
2022-11-04T20:32:06.667Z,99882.38
2022-11-04T20:34:38.320Z,99881.53
2022-11-04T20:37:08.346Z,99895.88
2022-11-04T20:39:41.441Z,99889.50
2022-11-04T20:42:12.852Z,99895.34
2022-11-04T20:44:43.561Z,99891.03
2022-11-04T20:47:19.739Z,99894.28
2022-11-04T20:49:58.712Z,99899.56
2022-11-04T20:52:39.079Z,99899.25
2022-11-04T20:55:13.272Z,99915.03
2022-11-04T20:57:54.050Z,99905.31
2022-11-04T21:00:26.802Z,99905.97
2022-11-04T21:03:03.561Z,99919.03
2022-11-04T21:08:10.906Z,99929.03
2022-11-04T21:10:45.984Z,99938.53
2022-11-04T21:13:24.203Z,99936.13
2022-11-04T21:16:08.083Z,99926.22
2022-11-04T21:18:57.345Z,99940.91
2022-11-04T21:21:29.204Z,99950.53
2022-11-04T21:24:25.143Z,99949.88
2022-11-04T21:26:57.391Z,99953.22
2022-11-04T21:29:29.371Z,99946.75
2022-11-04T21:32:06.750Z,99964.44
2022-11-04T21:34:40.034Z,99966.72
2022-11-04T21:37:16.499Z,99972.59
2022-11-04T21:39:48.135Z,99979.84
2022-11-04T21:42:35.158Z,99989.66
2022-11-04T21:47:56.880Z,99988.69
2022-11-04T21:50:28.804Z,99994.81
2022-11-04T21:53:03.655Z,99989.88
2022-11-04T22:04:33.207Z,99988.16
2022-11-04T22:18:49.631Z,100007.78
2022-11-04T22:27:09.986Z,100009.28
2022-11-04T22:29:41.864Z,100019.16
2022-11-04T22:32:17.763Z,100026.19
2022-11-04T22:34:50.050Z,100022.41
2022-11-04T22:40:36.058Z,100022.75
2022-11-04T22:46:31.217Z,100022.22
2022-11-04T22:49:11.260Z,100017.56
2022-11-04T22:51:41.293Z,100011.69
2022-11-04T22:54:11.996Z,100014.09
2022-11-04T22:56:43.961Z,100013.38
2022-11-04T22:59:13.414Z,100012.91
2022-11-04T23:01:47.551Z,100010.31
2022-11-04T23:04:21.313Z,100014.75
2022-11-04T23:09:58.426Z,100016.88
2022-11-04T23:13:03.342Z,100025.84
2022-11-04T23:22:07.303Z,100028.59
2022-11-04T23:24:57.113Z,100036.66
2022-11-04T23:28:00.286Z,100031.09
2022-11-04T23:30:45.168Z,100035.50
2022-11-04T23:33:20.912Z,100041.78
2022-11-04T23:36:12.206Z,100066.38
2022-11-04T23:42:20.364Z,100057.34
2022-11-04T23:48:25.733Z,100070.97
2022-11-04T23:51:17.444Z,100079.41
2022-11-04T23:54:05.923Z,100074.03
2022-11-04T23:56:52.883Z,100066.28
2022-11-04T23:59:40.402Z,100065.38
